Private Wetterstation Ehingen
Wetterdaten: aktuell Donnerstag, 22.06.2017 22:50
Datum Zeit Temperatur Luftfeuchte Luftdruck Regen Wind Richtung Richtung Sonnenschein Taupunkt Windchill Windben
22.06.2017 22:50 23,4 C 65 % 1011,1 hPa 0,0 l/m 4,4 km/h (1 Bft) W-SW 248 0 min 16,4 C 23,4 C 7,0 km/h (2 Bft)
22.06.2017 22:45 23,3 C 67 % 1011,1 hPa 0,0 l/m 6,1 km/h (2 Bft) W-SW 252 0 min 16,8 C 23,3 C 10,5 km/h (2 Bft)
22.06.2017 22:40 23,3 C 68 % 1011,1 hPa 0,0 l/m 8,8 km/h (2 Bft) W 262 0 min 17,1 C 22,6 C 10,5 km/h (2 Bft)
22.06.2017 22:35 23,3 C 70 % 1011,1 hPa 0,0 l/m 7,0 km/h (2 Bft) W 261 0 min 17,5 C 23,1 C 9,7 km/h (2 Bft)
22.06.2017 22:25 23,3 C 72 % 1011,1 hPa 0,0 l/m 7,0 km/h (2 Bft) W-SW 254 0 min 18,0 C 23,1 C 9,7 km/h (2 Bft)
22.06.2017 22:20 23,3 C 72 % 1011,1 hPa 0,0 l/m 5,3 km/h (1 Bft) W 265 0 min 18,0 C 23,3 C 7,9 km/h (2 Bft)
22.06.2017 22:15 23,4 C 74 % 1011,1 hPa 0,0 l/m 6,1 km/h (2 Bft) W-NW 295 0 min 18,5 C 23,4 C 11,4 km/h (2 Bft)
22.06.2017 22:10 23,5 C 74 % 1011,0 hPa 0,0 l/m 0,0 km/h (0 Bft) S-SW 207 0 min 18,6 C 23,5 C 0,0 km/h (0 Bft)
22.06.2017 22:05 23,6 C 74 % 1011,0 hPa 0,0 l/m 4,4 km/h (1 Bft) W-SW 237 0 min 18,7 C 23,6 C 6,1 km/h (2 Bft)
22.06.2017 22:00 23,7 C 76 % 1011,0 hPa 0,0 l/m 0,0 km/h (0 Bft) W-SW 239 0 min 19,2 C 23,7 C 7,0 km/h (2 Bft)
22.06.2017 21:55 23,8 C 76 % 1011,0 hPa 0,0 l/m 0,0 km/h (0 Bft) SW 227 0 min 19,3 C 23,8 C 5,3 km/h (1 Bft)
22.06.2017 21:50 24,0 C 75 % 1010,9 hPa 0,0 l/m 0,0 km/h (0 Bft) SW 231 0 min 19,3 C 24,0 C 0,0 km/h (0 Bft)
22.06.2017 21:45 24,1 C 74 % 1010,9 hPa 0,0 l/m 5,3 km/h (1 Bft) W-SW 249 0 min 19,2 C 24,1 C 7,0 km/h (2 Bft)
22.06.2017 21:15 25,1 C 63 % 1010,7 hPa 0,0 l/m 0,0 km/h (0 Bft) SW 231 0 min 17,5 C 25,1 C 0,0 km/h (0 Bft)
22.06.2017 21:00 25,4 C 63 % 1010,7 hPa 0,0 l/m 0,0 km/h (0 Bft) SW 233 0 min 17,8 C 25,4 C 0,0 km/h (0 Bft)
22.06.2017 20:55 25,4 C 63 % 1010,7 hPa 0,0 l/m 0,0 km/h (0 Bft) SW 233 0 min 17,8 C 25,4 C 0,0 km/h (0 Bft)
22.06.2017 20:50 25,4 C 63 % 1010,7 hPa 0,0 l/m 0,0 km/h (0 Bft) SW 233 0 min 17,8 C 25,4 C 0,0 km/h (0 Bft)
22.06.2017 20:45 25,5 C 62 % 1010,6 hPa 0,0 l/m 0,0 km/h (0 Bft) SW 233 0 min 17,7 C 25,5 C 0,0 km/h (0 Bft)
22.06.2017 20:40 25,5 C 62 % 1010,6 hPa 0,0 l/m 0,0 km/h (0 Bft) SW 233 0 min 17,7 C 25,5 C 0,0 km/h (0 Bft)
22.06.2017 20:35 25,6 C 61 % 1010,6 hPa 0,0 l/m 0,0 km/h (0 Bft) SW 233 0 min 17,5 C 25,6 C 0,0 km/h (0 Bft)
22.06.2017 20:30 25,7 C 61 % 1010,6 hPa 0,0 l/m 0,0 km/h (0 Bft) SW 233 0 min 17,6 C 25,7 C 0,0 km/h (0 Bft)
22.06.2017 20:25 25,8 C 61 % 1010,6 hPa 0,0 l/m 0,0 km/h (0 Bft) SW 233 0 min 17,7 C 25,8 C 0,0 km/h (0 Bft)
22.06.2017 20:20 26,0 C 61 % 1010,5 hPa 0,0 l/m 0,0 km/h (0 Bft) SW 233 0 min 17,9 C 26,0 C 0,0 km/h (0 Bft)
22.06.2017 20:15 26,1 C 61 % 1010,5 hPa 0,0 l/m 0,0 km/h (0 Bft) SW 233 0 min 18,0 C 26,1 C 0,0 km/h (0 Bft)
22.06.2017 20:10 26,3 C 60 % 1010,5 hPa 0,0 l/m 0,0 km/h (0 Bft) SW 233 0 min 17,9 C 26,3 C 0,0 km/h (0 Bft)
22.06.2017 20:05 26,5 C 58 % 1010,4 hPa 0,0 l/m 0,0 km/h (0 Bft) SW 233 0 min 17,5 C 26,5 C 0,0 km/h (0 Bft)
22.06.2017 20:00 26,7 C 58 % 1011,5 hPa 0,0 l/m 0,0 km/h (0 Bft) SW 233 0 min 17,7 C 26,7 C 0,0 km/h (0 Bft)
22.06.2017 19:50 28,5 C 53 % 1011,1 hPa 0,0 l/m 7,9 km/h (2 Bft) S 176 0 min 18,0 C 28,3 C 6,1 km/h (2 Bft)
22.06.2017 19:45 28,5 C 53 % 1011,1 hPa 0,0 l/m 7,9 km/h (2 Bft) S 176 0 min 18,0 C 28,3 C 6,1 km/h (2 Bft)
22.06.2017 19:40 28,5 C 53 % 1011,1 hPa 0,0 l/m 7,9 km/h (2 Bft) S 176 0 min 18,0 C 28,3 C 6,1 km/h (2 Bft)
22.06.2017 19:35 29,2 C 53 % 1011,0 hPa 0,0 l/m 9,7 km/h (2 Bft) W 262 0 min 18,6 C 28,8 C 17,1 km/h (3 Bft)
22.06.2017 19:30 29,6 C 54 % 1010,9 hPa 0,0 l/m 9,7 km/h (2 Bft) W-SW 255 0 min 19,3 C 29,3 C 14,9 km/h (3 Bft)
22.06.2017 19:25 29,8 C 50 % 1010,9 hPa 0,0 l/m 7,0 km/h (2 Bft) W 261 0 min 18,2 C 29,7 C 10,5 km/h (2 Bft)
22.06.2017 19:20 30,0 C 47 % 1010,8 hPa 0,0 l/m 6,1 km/h (2 Bft) W-SW 254 0 min 17,4 C 30,0 C 7,9 km/h (2 Bft)
22.06.2017 19:15 30,1 C 47 % 1010,8 hPa 0,0 l/m 5,3 km/h (1 Bft) W 266 0 min 17,5 C 30,1 C 7,0 km/h (2 Bft)
22.06.2017 19:10 30,1 C 47 % 1010,8 hPa 0,0 l/m 7,9 km/h (2 Bft) W-NW 301 0 min 17,5 C 30,0 C 8,8 km/h (2 Bft)
22.06.2017 19:05 30,0 C 46 % 1010,8 hPa 0,0 l/m 9,7 km/h (2 Bft) W-SW 255 0 min 17,1 C 29,7 C 11,4 km/h (2 Bft)
22.06.2017 19:00 30,0 C 47 % 1010,8 hPa 0,0 l/m 10,5 km/h (2 Bft) SW 234 0 min 17,4 C 29,6 C 15,8 km/h (3 Bft)
22.06.2017 18:55 30,0 C 46 % 1010,8 hPa 0,0 l/m 10,5 km/h (2 Bft) W 265 0 min 17,1 C 29,6 C 15,8 km/h (3 Bft)
22.06.2017 18:50 30,0 C 46 % 1010,8 hPa 0,0 l/m 8,8 km/h (2 Bft) SW 226 0 min 17,1 C 29,8 C 17,1 km/h (3 Bft)
22.06.2017 18:45 30,0 C 47 % 1010,8 hPa 0,0 l/m 10,5 km/h (2 Bft) W-SW 256 0 min 17,4 C 29,6 C 12,3 km/h (2 Bft)
_ Min-Zeit 05:25 16:55 16:20 - 22:10 - - - 05:25 05:25 22:10
Minimum _ 14,8 C 42 % 1010,4 hPa - 0,0 km/h (0 Bft) - - - 13,3 C 14,8 C 0,0 km/h (0 Bft)
_ Max-Zeit 16:20 07:50 05:25 22:50 13:25 - - 15:15 21:55 16:25 16:15
Maximum _ 32,2 C 92 % 1016,0 hPa 0,0 l/m 16,3 km/h
S-SO (3 Bft)
- - 5 min 19,3 C 32,1 C 24,2 km/h
W-SW (4 Bft)
Durchschnitt _ 23,7 C 67 % 1013,3 hPa #0,0 l/m 4,8 km/h (1 Bft) W-SW - #8:35 h 16,4 C 23,6 C 7,1 km/h (2 Bft)